Socorro, New Mexico
Current Conditions -  °F | °C
As of 8:35 PM on Sunday 21 Dec 2014 (Local Time) from KONM Reporting Station
Clear Clear  
Wind Chill: 43°   Ceiling: Unl
Heat Index: 48°   Visibility: 10mi
Dew Point: 29°   Wind: 13mph
Humidity: 49%   Direction: 330°NNW
Pressure: 29.93"   Gusts: NA
Location:  34.06°N, 106.89°W
Report Text: KONM 220335Z AUTO 33011KT 10SM CLR 09/M01 A2993 RMK AO2 T00881015
Loading
Personal Weather Stations






























Interactive Weather Map New forecast layout! Learn more

10-Day Weather Forecast

Advertisements
Track Severe Weather on mobile